Time;durP1;ratioP1;P1;durP2;ratioP2;P2;SDS_P1;SDS_P2;PMS_P1;PMS_P2;Temp;Humidity;BMP_temperature;BMP_pressure;BME280_temperature;BME280_humidity;BME280_pressure;Samples;Min_cycle;Max_cycle;Signal;HPM_P1;HPM_P2
2023/02/07 00:01:23;;;;;;;12.00;5.50;;;0.20;99.90;;;;;;4995463;28;20438;-70
2023/02/07 00:03:49;;;;;;;10.43;4.63;;;0.20;99.90;;;;;;4995208;28;20419;-70
2023/02/07 00:06:19;;;;;;;10.40;5.37;;;0.10;99.90;;;;;;4995121;28;20423;-70
2023/02/07 00:08:46;;;;;;;7.37;3.73;;;0.10;99.90;;;;;;4995098;28;20422;-70
2023/02/07 00:11:15;;;;;;;15.40;4.97;;;0.00;99.90;;;;;;4995169;28;20515;-70
2023/02/07 00:13:42;;;;;;;12.37;4.90;;;0.10;99.90;;;;;;4995120;28;20421;-70
2023/02/07 00:16:08;;;;;;;7.23;4.43;;;0.00;99.90;;;;;;4994832;28;20508;-70
2023/02/07 00:18:34;;;;;;;7.30;4.40;;;0.00;99.90;;;;;;4995212;28;20462;-70
2023/02/07 00:21:06;;;;;;;6.87;4.70;;;0.00;99.90;;;;;;4994850;28;20428;-70
2023/02/07 00:23:32;;;;;;;10.33;4.97;;;-0.10;99.90;;;;;;4995102;28;20761;-70
2023/02/07 00:25:59;;;;;;;6.57;4.00;;;-0.10;99.90;;;;;;5018173;28;20422;-70
2023/02/07 00:28:25;;;;;;;11.20;4.60;;;-0.10;99.90;;;;;;5016945;28;20415;-70
2023/02/07 00:31:00;;;;;;;13.27;5.13;;;-0.20;99.90;;;;;;5014163;28;20431;-70
2023/02/07 00:33:26;;;;;;;10.60;4.37;;;-0.10;99.90;;;;;;5009576;28;20403;-70
2023/02/07 00:35:57;;;;;;;7.63;5.10;;;-0.20;99.90;;;;;;4994878;28;20552;-70
2023/02/07 00:38:23;;;;;;;18.17;5.00;;;-0.20;99.90;;;;;;4994784;28;20193;-70
2023/02/07 00:40:48;;;;;;;11.13;4.90;;;-0.20;99.90;;;;;;4993733;28;20798;-70
2023/02/07 00:43:14;;;;;;;6.47;4.33;;;-0.30;99.90;;;;;;4994583;28;20204;-70
2023/02/07 00:45:39;;;;;;;8.80;5.40;;;-0.30;99.90;;;;;;5003378;28;20593;-70
2023/02/07 00:48:05;;;;;;;7.57;4.57;;;-0.30;99.90;;;;;;5013940;28;20247;-70
2023/02/07 00:50:30;;;;;;;10.43;5.40;;;-0.30;99.90;;;;;;5014079;28;20219;-70
2023/02/07 00:52:56;;;;;;;9.47;5.30;;;-0.30;99.90;;;;;;5013949;28;20175;-70
2023/02/07 00:55:21;;;;;;;8.40;3.70;;;-0.30;99.90;;;;;;5013775;28;20170;-70
2023/02/07 00:57:47;;;;;;;9.27;5.83;;;-0.40;99.90;;;;;;5014030;28;20674;-70
2023/02/07 01:00:13;;;;;;;6.23;4.30;;;-0.40;99.90;;;;;;5013829;28;20184;-70
2023/02/07 01:02:39;;;;;;;6.20;4.60;;;-0.30;99.90;;;;;;5013201;28;20215;-70
2023/02/07 01:05:05;;;;;;;6.13;4.17;;;-0.40;99.90;;;;;;4994319;28;20436;-70
2023/02/07 01:07:32;;;;;;;5.80;3.70;;;-0.40;99.90;;;;;;4994275;28;20692;-70
2023/02/07 01:09:57;;;;;;;11.23;5.53;;;-0.40;99.90;;;;;;4993830;28;20506;-71
2023/02/07 01:12:23;;;;;;;17.30;5.47;;;-0.40;99.90;;;;;;4994046;28;20405;-70
2023/02/07 01:14:48;;;;;;;6.30;3.60;;;-0.40;99.90;;;;;;4993579;28;20176;-70
2023/02/07 01:17:14;;;;;;;7.80;5.03;;;-0.40;99.90;;;;;;4993917;28;20181;-70
2023/02/07 01:19:39;;;;;;;16.00;4.53;;;-0.40;99.90;;;;;;4993781;28;20196;-70
2023/02/07 01:22:05;;;;;;;13.00;4.63;;;-0.40;99.90;;;;;;4992626;28;20543;-70
2023/02/07 01:24:31;;;;;;;8.83;4.10;;;-0.50;99.90;;;;;;4993609;28;20196;-70
2023/02/07 01:26:56;;;;;;;4.97;3.97;;;-0.50;99.90;;;;;;4993686;28;20176;-70
2023/02/07 01:29:22;;;;;;;7.93;4.20;;;-0.50;99.90;;;;;;4993720;28;20594;-70
2023/02/07 01:31:47;;;;;;;9.67;5.13;;;-0.50;99.90;;;;;;4993495;28;20178;-70
2023/02/07 01:34:13;;;;;;;7.70;4.83;;;-0.50;99.90;;;;;;5008493;28;20261;-70
2023/02/07 01:36:39;;;;;;;7.83;5.47;;;-0.50;99.90;;;;;;5024080;28;20652;-71
2023/02/07 01:39:04;;;;;;;7.07;4.60;;;-0.60;99.90;;;;;;5013222;28;20200;-70
2023/02/07 01:41:30;;;;;;;5.67;3.60;;;-0.50;99.90;;;;;;5009812;28;20452;-70
2023/02/07 01:44:05;;;;;;;6.80;5.43;;;-0.60;99.90;;;;;;5012931;28;20179;-70
2023/02/07 01:46:33;;;;;;;8.10;4.17;;;-0.60;99.90;;;;;;4995421;28;20165;-70
2023/02/07 01:49:11;;;;;;;10.97;4.07;;;-0.60;99.90;;;;;;4993324;28;20449;-70
2023/02/07 01:51:41;;;;;;;4.77;3.90;;;-0.60;99.90;;;;;;4993249;28;20404;-70
2023/02/07 01:54:10;;;;;;;8.30;5.13;;;-0.60;99.90;;;;;;4991931;28;20416;-70
2023/02/07 01:56:39;;;;;;;7.63;4.27;;;-0.60;99.90;;;;;;4991925;28;20423;-70
2023/02/07 01:59:05;;;;;;;8.77;5.07;;;-0.60;99.90;;;;;;4992886;28;20443;-69
2023/02/07 02:01:31;;;;;;;6.43;4.50;;;-0.60;99.90;;;;;;4993167;28;20435;-70
2023/02/07 02:03:57;;;;;;;8.87;5.20;;;-0.60;99.90;;;;;;4999967;28;20506;-71
2023/02/07 02:06:26;;;;;;;9.80;3.93;;;-0.70;99.90;;;;;;4992892;28;20244;-70
2023/02/07 02:08:57;;;;;;;14.33;5.10;;;-0.70;99.90;;;;;;4992876;28;20177;-71
2023/02/07 02:11:53;;;;;;;7.93;5.43;;;-0.70;99.90;;;;;;4992861;28;20869;-70
2023/02/07 02:14:28;;;;;;;10.03;4.90;;;-0.70;99.90;;;;;;4992722;28;20404;-70
2023/02/07 02:17:11;;;;;;;8.00;4.33;;;-0.70;99.90;;;;;;4991737;28;20462;-70
2023/02/07 02:20:01;;;;;;;4.27;3.10;;;-0.70;99.90;;;;;;4992904;28;20423;-70
2023/02/07 02:22:51;;;;;;;8.23;5.47;;;-0.80;99.90;;;;;;4993002;28;20898;-70
2023/02/07 02:25:38;;;;;;;8.00;3.67;;;-0.80;99.90;;;;;;4992528;28;20984;-70
2023/02/07 02:28:07;;;;;;;5.83;4.00;;;-0.80;99.90;;;;;;4991427;28;20419;-70
2023/02/07 02:31:03;;;;;;;11.50;4.37;;;-0.90;99.90;;;;;;4992650;28;20416;-71
2023/02/07 02:33:53;;;;;;;7.13;4.47;;;-0.90;99.90;;;;;;4994034;28;20785;-71
2023/02/07 02:36:28;;;;;;;8.77;3.73;;;-0.90;99.90;;;;;;4992418;28;20404;-71
2023/02/07 02:39:06;;;;;;;13.03;4.80;;;-1.00;99.90;;;;;;4992582;28;20448;-71
2023/02/07 02:41:40;;;;;;;4.47;3.30;;;-1.00;99.90;;;;;;5017105;28;20521;-71
2023/02/07 02:44:19;;;;;;;6.40;4.50;;;-1.00;99.90;;;;;;5012757;28;20409;-70
2023/02/07 02:46:46;;;;;;;8.53;4.63;;;-1.00;99.90;;;;;;4993212;28;20918;-71
2023/02/07 02:49:14;;;;;;;8.90;5.03;;;-1.00;99.90;;;;;;4992296;28;20408;-71
2023/02/07 02:51:40;;;;;;;7.83;4.67;;;-1.00;99.90;;;;;;5007664;28;20503;-70
2023/02/07 02:54:38;;;;;;;7.70;4.17;;;-1.00;99.90;;;;;;4992337;28;20953;-70
2023/02/07 02:57:34;;;;;;;8.63;4.70;;;-1.00;99.90;;;;;;4992331;28;20165;-70
2023/02/07 03:00:37;;;;;;;9.43;3.90;;;-1.00;99.90;;;;;;4992492;28;20801;-69
2023/02/07 03:03:40;;;;;;;8.40;4.13;;;-1.10;99.90;;;;;;4999144;28;20740;-70
2023/02/07 03:06:56;;;;;;;5.30;3.80;;;-1.10;99.90;;;;;;5015735;28;20529;-69
2023/02/07 03:09:50;;;;;;;8.10;4.00;;;-1.10;99.90;;;;;;5013324;28;20430;-71
2023/02/07 03:12:42;;;;;;;6.77;4.30;;;-1.20;99.90;;;;;;5013590;28;20470;-70
2023/02/07 03:15:40;;;;;;;9.33;5.00;;;-1.20;99.90;;;;;;5015322;28;20415;-69
2023/02/07 03:18:48;;;;;;;5.97;4.40;;;-1.20;99.90;;;;;;5015757;28;20462;-69
2023/02/07 03:21:30;;;;;;;9.83;4.43;;;-1.20;99.90;;;;;;5015514;28;20442;-70
2023/02/07 03:23:59;;;;;;;14.80;5.07;;;-1.20;99.90;;;;;;5015729;28;20485;-70
2023/02/07 03:26:26;;;;;;;7.13;5.00;;;-1.30;99.90;;;;;;5015224;28;20453;-70
2023/02/07 03:28:55;;;;;;;8.63;3.87;;;-1.30;99.90;;;;;;5015518;28;20419;-71
2023/02/07 03:31:22;;;;;;;8.73;4.67;;;-1.30;99.90;;;;;;5015500;28;20434;-71
2023/02/07 03:33:53;;;;;;;13.13;4.60;;;-1.40;99.90;;;;;;5015286;28;20577;-70
2023/02/07 03:36:23;;;;;;;9.23;3.90;;;-1.40;99.90;;;;;;5015164;28;20429;-71
2023/02/07 03:38:49;;;;;;;7.90;4.37;;;-1.40;99.90;;;;;;5015277;28;20446;-70
2023/02/07 03:41:26;;;;;;;8.53;3.63;;;-1.40;99.90;;;;;;5015296;28;20958;-70
2023/02/07 03:43:53;;;;;;;8.67;3.80;;;-1.40;99.90;;;;;;5015310;28;20413;-69
2023/02/07 03:46:19;;;;;;;9.00;3.83;;;-1.40;99.90;;;;;;5000605;28;20942;-67
2023/02/07 03:48:44;;;;;;;7.07;4.80;;;-1.40;99.90;;;;;;4995706;28;20424;-69
2023/02/07 03:51:10;;;;;;;9.30;4.57;;;-1.40;99.90;;;;;;5010740;28;20207;-69
2023/02/07 03:53:35;;;;;;;5.80;4.10;;;-1.40;99.90;;;;;;5029712;28;20173;-70
2023/02/07 03:56:01;;;;;;;19.67;5.80;;;-1.40;99.90;;;;;;5034674;28;20255;-69
2023/02/07 03:58:26;;;;;;;11.60;5.10;;;-1.50;99.90;;;;;;5034657;28;20237;-71
2023/02/07 04:00:52;;;;;;;5.17;3.60;;;-1.50;99.90;;;;;;5034663;28;20241;-71
2023/02/07 04:03:17;;;;;;;7.07;4.70;;;-1.50;99.90;;;;;;5020807;28;20246;-70
2023/02/07 04:05:44;;;;;;;9.90;4.07;;;-1.50;99.90;;;;;;5006735;28;20204;-70
2023/02/07 04:08:10;;;;;;;6.47;4.43;;;-1.50;99.90;;;;;;5014821;28;20234;-70
2023/02/07 04:10:36;;;;;;;10.30;6.07;;;-1.50;99.90;;;;;;5014590;28;20538;-71
2023/02/07 04:13:01;;;;;;;13.93;6.40;;;-1.50;99.90;;;;;;5014868;28;20172;-70
2023/02/07 04:15:27;;;;;;;6.10;4.20;;;-1.60;99.90;;;;;;5014408;28;20172;-70
2023/02/07 04:17:52;;;;;;;8.50;5.03;;;-1.60;99.90;;;;;;5014603;28;20199;-70
2023/02/07 04:20:18;;;;;;;8.00;4.63;;;-1.60;99.90;;;;;;5014181;28;20188;-70
2023/02/07 04:22:43;;;;;;;7.70;4.93;;;-1.60;99.90;;;;;;5014456;28;20164;-70
2023/02/07 04:25:09;;;;;;;9.13;4.23;;;-1.60;99.90;;;;;;5014276;28;20173;-70
2023/02/07 04:27:34;;;;;;;8.97;4.10;;;-1.60;99.90;;;;;;5014438;28;20165;-70
2023/02/07 04:30:00;;;;;;;6.30;4.47;;;-1.60;99.90;;;;;;5014508;28;20203;-70
2023/02/07 04:32:25;;;;;;;7.60;4.23;;;-1.60;99.90;;;;;;5005348;28;20181;-69
2023/02/07 04:34:51;;;;;;;6.67;4.70;;;-1.60;99.90;;;;;;4994609;28;20173;-70
2023/02/07 04:37:16;;;;;;;6.53;3.47;;;-1.60;99.90;;;;;;4994568;28;20169;-70
2023/02/07 04:39:42;;;;;;;6.17;4.43;;;-1.70;99.90;;;;;;4994651;28;20200;-70
2023/02/07 04:42:07;;;;;;;11.23;4.20;;;-1.70;99.90;;;;;;4994770;28;20173;-70
2023/02/07 04:44:33;;;;;;;10.43;5.63;;;-1.70;99.90;;;;;;4994228;28;20224;-70
2023/02/07 04:46:59;;;;;;;7.33;4.50;;;-1.70;99.90;;;;;;4994710;28;20188;-70
2023/02/07 04:49:24;;;;;;;8.40;4.47;;;-1.70;99.90;;;;;;4994433;28;20172;-70
2023/02/07 04:51:50;;;;;;;6.63;4.13;;;-1.70;99.90;;;;;;4994473;28;20177;-71
2023/02/07 04:54:15;;;;;;;6.07;4.13;;;-1.70;99.90;;;;;;4994179;28;20173;-71
2023/02/07 04:56:41;;;;;;;9.07;5.23;;;-1.70;99.90;;;;;;4994453;28;20169;-70
2023/02/07 04:59:06;;;;;;;8.43;4.70;;;-1.70;99.90;;;;;;4994384;28;20674;-69
2023/02/07 05:01:32;;;;;;;9.23;5.17;;;-1.70;99.90;;;;;;4997260;28;20188;-69
2023/02/07 05:03:57;;;;;;;8.93;5.43;;;-1.70;99.90;;;;;;5011889;28;20180;-69
2023/02/07 05:06:23;;;;;;;8.10;4.63;;;-1.80;99.90;;;;;;5033144;28;20629;-70
2023/02/07 05:08:48;;;;;;;8.20;4.27;;;-1.80;99.90;;;;;;5033472;28;20545;-70
2023/02/07 05:11:14;;;;;;;9.37;5.40;;;-1.80;99.90;;;;;;5033353;28;20193;-70
2023/02/07 05:13:39;;;;;;;6.37;3.87;;;-1.80;99.90;;;;;;5033453;28;20597;-71
2023/02/07 05:16:05;;;;;;;9.80;5.20;;;-1.80;99.90;;;;;;5033050;28;20177;-70
2023/02/07 05:18:31;;;;;;;8.90;4.47;;;-1.80;99.90;;;;;;5032120;28;20293;-69
2023/02/07 05:20:57;;;;;;;16.83;4.20;;;-1.80;99.90;;;;;;5033133;28;20192;-70
2023/02/07 05:23:23;;;;;;;10.33;4.50;;;-1.80;99.90;;;;;;5033052;28;20405;-70
2023/02/07 05:25:48;;;;;;;6.57;4.47;;;-1.80;99.90;;;;;;5032813;28;20501;-70
2023/02/07 05:28:14;;;;;;;11.27;5.07;;;-1.80;99.90;;;;;;5032692;28;20251;-70
2023/02/07 05:30:40;;;;;;;9.70;3.40;;;-1.80;99.90;;;;;;5032955;28;20200;-71
2023/02/07 05:33:05;;;;;;;7.83;5.60;;;-1.80;99.90;;;;;;4994945;28;20239;-70
2023/02/07 05:35:44;;;;;;;5.93;4.23;;;-1.90;99.90;;;;;;4993348;28;20197;-69
2023/02/07 05:38:13;;;;;;;4.40;3.40;;;-1.90;99.90;;;;;;4993529;28;20875;-70
2023/02/07 05:40:40;;;;;;;10.77;5.43;;;-1.90;99.90;;;;;;4993625;28;20428;-70
2023/02/07 05:43:06;;;;;;;5.77;3.77;;;-1.90;99.90;;;;;;4993545;28;20416;-70
2023/02/07 05:45:32;;;;;;;8.30;4.50;;;-2.00;99.90;;;;;;4993111;28;20423;-70
2023/02/07 05:47:58;;;;;;;13.13;5.23;;;-2.00;99.90;;;;;;4993472;28;20416;-70
2023/02/07 05:50:24;;;;;;;9.33;5.53;;;-2.00;99.90;;;;;;4993281;28;20455;-70
2023/02/07 05:52:50;;;;;;;6.47;4.40;;;-2.00;99.90;;;;;;4993332;28;20169;-70
2023/02/07 05:55:16;;;;;;;8.80;4.00;;;-2.00;99.90;;;;;;4992873;28;20424;-70
2023/02/07 05:57:42;;;;;;;8.80;4.30;;;-2.00;99.90;;;;;;4993248;28;20274;-70
2023/02/07 06:00:11;;;;;;;6.97;5.10;;;-2.00;99.90;;;;;;4993086;28;20278;-70
2023/02/07 06:02:38;;;;;;;8.13;5.07;;;-2.00;99.90;;;;;;5000374;28;20424;-70
2023/02/07 06:05:05;;;;;;;9.40;4.53;;;-2.00;99.90;;;;;;4992767;28;20412;-69
2023/02/07 06:07:30;;;;;;;6.90;4.70;;;-2.00;99.90;;;;;;4993061;28;20416;-70
2023/02/07 06:09:56;;;;;;;19.03;6.50;;;-2.00;99.90;;;;;;4992975;28;20473;-69
2023/02/07 06:12:22;;;;;;;9.60;5.03;;;-2.00;99.90;;;;;;5010224;28;20187;-69
2023/02/07 06:14:47;;;;;;;9.03;5.20;;;-2.00;99.90;;;;;;5028885;28;20958;-70
2023/02/07 06:17:13;;;;;;;8.80;5.60;;;-2.00;99.90;;;;;;5032152;28;20593;-70
2023/02/07 06:19:38;;;;;;;9.03;5.27;;;-2.00;99.90;;;;;;5012440;28;20199;-70
2023/02/07 06:22:04;;;;;;;7.60;4.13;;;-2.00;99.90;;;;;;5012540;28;20708;-69
2023/02/07 06:24:29;;;;;;;6.33;4.30;;;-2.00;99.90;;;;;;5012113;28;20172;-69
2023/02/07 06:26:55;;;;;;;9.20;4.77;;;-2.00;99.90;;;;;;5012495;28;20176;-69
2023/02/07 06:29:20;;;;;;;8.67;5.43;;;-2.00;99.90;;;;;;5011087;28;20194;-70
2023/02/07 06:31:46;;;;;;;8.73;5.10;;;-2.00;99.90;;;;;;5011125;28;20180;-71
2023/02/07 06:34:11;;;;;;;8.40;4.53;;;-2.10;99.90;;;;;;5012196;28;20623;-70
2023/02/07 06:36:37;;;;;;;7.30;4.53;;;-2.10;99.90;;;;;;5012230;28;20176;-70
2023/02/07 06:39:03;;;;;;;7.77;4.17;;;-2.10;99.90;;;;;;5011478;28;20207;-70
2023/02/07 06:41:28;;;;;;;9.37;5.03;;;-2.10;99.90;;;;;;5012408;28;20185;-70
2023/02/07 06:43:54;;;;;;;9.40;4.50;;;-2.20;99.90;;;;;;5012305;28;20419;-70
2023/02/07 06:46:19;;;;;;;6.90;4.93;;;-2.10;99.90;;;;;;4997440;28;20173;-70
2023/02/07 06:48:45;;;;;;;9.77;5.90;;;-2.10;99.90;;;;;;4992561;28;20203;-70
2023/02/07 06:51:10;;;;;;;9.47;5.10;;;-2.10;99.90;;;;;;4992458;28;20192;-70
2023/02/07 06:53:36;;;;;;;5.60;4.30;;;-2.10;99.90;;;;;;4992623;28;20335;-69
2023/02/07 06:56:01;;;;;;;6.93;4.07;;;-2.10;99.90;;;;;;4992300;28;20185;-69
2023/02/07 06:58:27;;;;;;;7.70;3.07;;;-2.10;99.90;;;;;;4992509;28;20215;-70
2023/02/07 07:00:52;;;;;;;6.07;3.50;;;-2.00;99.90;;;;;;5001176;28;20277;-70
2023/02/07 07:03:18;;;;;;;15.23;4.70;;;-2.00;99.90;;;;;;4992402;28;20566;-70
2023/02/07 07:05:44;;;;;;;8.67;4.10;;;-2.00;99.90;;;;;;4990906;28;20173;-71
2023/02/07 07:08:13;;;;;;;6.50;3.50;;;-2.00;99.90;;;;;;4992352;28;20252;-70
2023/02/07 07:10:39;;;;;;;5.60;3.80;;;-1.90;99.90;;;;;;4992352;28;20455;-70
2023/02/07 07:13:04;;;;;;;6.57;4.00;;;-1.90;99.90;;;;;;4992342;28;20412;-69
2023/02/07 07:15:30;;;;;;;8.37;4.20;;;-1.90;99.90;;;;;;4992133;28;20173;-70
2023/02/07 07:17:55;;;;;;;8.73;3.97;;;-1.80;99.90;;;;;;4992169;28;20756;-70
2023/02/07 07:20:21;;;;;;;7.53;4.77;;;-1.70;99.90;;;;;;4992373;28;20177;-70
2023/02/07 07:22:48;;;;;;;4.20;2.87;;;-1.70;99.90;;;;;;4997763;28;20176;-70
2023/02/07 07:25:13;;;;;;;5.50;3.50;;;-1.70;99.90;;;;;;5022585;28;20251;-70
2023/02/07 07:27:39;;;;;;;4.90;4.00;;;-1.70;99.90;;;;;;5011810;28;20496;-70
2023/02/07 07:30:05;;;;;;;9.33;4.10;;;-1.60;99.90;;;;;;5005948;28;20200;-70
2023/02/07 07:32:31;;;;;;;4.63;3.30;;;-1.60;99.90;;;;;;4992274;28;20173;-70
2023/02/07 07:34:56;;;;;;;6.43;3.73;;;-1.50;99.90;;;;;;4991884;28;20426;-70
2023/02/07 07:37:22;;;;;;;6.87;3.10;;;-1.40;99.90;;;;;;4991011;28;20427;-70
2023/02/07 07:39:47;;;;;;;4.07;2.80;;;-1.30;99.90;;;;;;4992033;28;20199;-70
2023/02/07 07:42:13;;;;;;;5.77;3.50;;;-1.30;99.90;;;;;;5006422;28;20180;-70
2023/02/07 07:44:38;;;;;;;9.13;3.40;;;-1.20;99.90;;;;;;5010475;28;20231;-70
2023/02/07 07:47:04;;;;;;;8.47;4.17;;;-1.20;99.90;;;;;;4992001;28;20220;-70
2023/02/07 07:49:29;;;;;;;5.70;3.40;;;-1.10;99.90;;;;;;4992498;28;20188;-70
2023/02/07 07:51:55;;;;;;;5.00;3.30;;;-1.00;99.90;;;;;;4995462;28;20173;-69
2023/02/07 07:54:20;;;;;;;5.10;2.80;;;-0.90;99.90;;;;;;4995427;28;20596;-70
2023/02/07 07:56:46;;;;;;;5.87;3.67;;;-0.70;99.90;;;;;;4995535;28;20179;-69
2023/02/07 07:59:12;;;;;;;10.60;3.77;;;-0.60;99.90;;;;;;4995439;28;20243;-71
2023/02/07 08:01:37;;;;;;;4.17;2.63;;;-0.50;99.90;;;;;;5012739;28;20177;-70
2023/02/07 08:04:03;;;;;;;4.67;3.60;;;-0.40;99.90;;;;;;5014435;28;20176;-70
2023/02/07 08:06:30;;;;;;;6.23;4.17;;;-0.30;99.90;;;;;;5014828;28;20179;-70
2023/02/07 08:08:55;;;;;;;6.33;3.97;;;-0.30;99.90;;;;;;5014886;28;20274;-70
2023/02/07 08:11:21;;;;;;;8.30;3.80;;;0.00;99.90;;;;;;5014864;28;20480;-69
2023/02/07 08:13:47;;;;;;;12.20;5.10;;;1.00;99.90;;;;;;5014334;28;20551;-70
2023/02/07 08:16:14;;;;;;;10.00;5.60;;;2.30;99.90;;;;;;5014465;28;20513;-70
2023/02/07 08:18:40;;;;;;;8.60;6.20;;;3.70;99.90;;;;;;5014593;28;20466;-70
2023/02/07 08:21:06;;;;;;;10.70;6.40;;;5.00;99.90;;;;;;5014693;28;20427;-70
2023/02/07 08:23:32;;;;;;;7.60;5.60;;;6.30;99.90;;;;;;5014620;28;20168;-70
2023/02/07 08:25:57;;;;;;;4.77;4.00;;;7.50;99.90;;;;;;5014368;28;20403;-69
2023/02/07 08:28:23;;;;;;;3.90;3.40;;;8.90;99.90;;;;;;5014845;28;20421;-70
2023/02/07 08:30:49;;;;;;;6.23;4.00;;;10.40;99.90;;;;;;4999432;28;20209;-69
2023/02/07 08:33:16;;;;;;;4.83;3.10;;;12.10;99.90;;;;;;4993434;28;20431;-70
2023/02/07 08:35:42;;;;;;;4.37;3.60;;;13.60;99.90;;;;;;5021742;28;20186;-69
2023/02/07 08:38:08;;;;;;;3.80;3.40;;;15.00;99.90;;;;;;5014717;28;20447;-69
2023/02/07 08:40:35;;;;;;;3.33;2.93;;;16.50;96.50;;;;;;5014316;28;20854;-69
2023/02/07 08:43:00;;;;;;;3.90;3.13;;;18.00;89.10;;;;;;5013880;28;20406;-70
2023/02/07 08:45:26;;;;;;;3.27;2.97;;;19.60;75.20;;;;;;5006768;28;20979;-70
2023/02/07 08:47:51;;;;;;;4.73;2.87;;;21.10;66.70;;;;;;4994599;28;20181;-69
2023/02/07 08:50:18;;;;;;;5.47;3.17;;;22.10;56.00;;;;;;4994575;28;20251;-69
2023/02/07 08:52:43;;;;;;;3.17;2.80;;;23.10;53.20;;;;;;4993406;28;20208;-69
2023/02/07 08:55:10;;;;;;;3.30;2.93;;;24.00;51.80;;;;;;4992694;28;20427;-69
2023/02/07 08:57:35;;;;;;;2.77;2.57;;;24.80;50.30;;;;;;4994102;28;20734;-70
2023/02/07 09:00:01;;;;;;;5.60;3.80;;;25.80;47.70;;;;;;4993974;28;20447;-69
2023/02/07 09:02:27;;;;;;;4.90;3.50;;;26.30;43.20;;;;;;5012664;28;20176;-71
2023/02/07 09:04:52;;;;;;;3.80;3.00;;;26.80;40.70;;;;;;5013227;28;20408;-70
2023/02/07 09:07:18;;;;;;;3.43;2.67;;;26.80;37.00;;;;;;5013688;28;20192;-70
2023/02/07 09:09:44;;;;;;;5.00;2.70;;;27.40;37.60;;;;;;5013241;28;20576;-70
2023/02/07 09:12:10;;;;;;;3.50;3.00;;;27.90;36.70;;;;;;5013468;28;20415;-70
2023/02/07 09:14:37;;;;;;;3.07;2.87;;;27.60;35.00;;;;;;5013037;28;20164;-70
2023/02/07 09:17:03;;;;;;;5.27;3.30;;;27.20;33.60;;;;;;5013443;28;20473;-70
2023/02/07 09:19:28;;;;;;;5.47;2.90;;;26.50;33.10;;;;;;5013338;28;20816;-71
2023/02/07 09:21:54;;;;;;;9.50;3.23;;;25.90;33.30;;;;;;5013130;28;20637;-67
2023/02/07 09:24:19;;;;;;;3.73;3.40;;;24.80;33.10;;;;;;5013000;28;20629;-69
2023/02/07 09:26:45;;;;;;;3.47;3.17;;;24.10;33.80;;;;;;5012875;28;20172;-69
2023/02/07 09:29:13;;;;;;;3.77;2.50;;;23.70;34.50;;;;;;5012884;28;20226;-70
2023/02/07 09:31:39;;;;;;;5.33;3.83;;;23.20;34.60;;;;;;5013129;28;20180;-69
2023/02/07 09:34:04;;;;;;;4.97;3.00;;;23.50;35.90;;;;;;5013236;28;20939;-70
2023/02/07 09:36:31;;;;;;;3.43;3.10;;;24.50;37.00;;;;;;5012746;28;20403;-69
2023/02/07 09:38:57;;;;;;;3.50;3.00;;;24.60;35.10;;;;;;5012844;28;20269;-70
2023/02/07 09:41:41;;;;;;;2.87;2.53;;;24.70;35.20;;;;;;5011686;28;20449;-69
2023/02/07 09:44:43;;;;;;;3.17;2.87;;;24.70;35.30;;;;;;5012664;28;20800;-69
2023/02/07 09:47:20;;;;;;;3.70;3.03;;;24.80;34.80;;;;;;5020188;28;21006;-70
2023/02/07 09:49:57;;;;;;;3.83;3.50;;;24.50;33.90;;;;;;4993098;28;21012;-70
2023/02/07 09:52:39;;;;;;;3.37;3.07;;;24.30;34.10;;;;;;4993234;28;20403;-70
2023/02/07 09:55:22;;;;;;;3.67;3.37;;;24.50;34.20;;;;;;4992704;28;20462;-70
2023/02/07 09:58:05;;;;;;;3.70;3.40;;;24.00;33.50;;;;;;4993224;28;20456;-69
2023/02/07 10:00:35;;;;;;;3.20;2.90;;;24.00;34.20;;;;;;5000180;28;20489;-70
2023/02/07 10:03:04;;;;;;;3.13;2.83;;;24.20;34.50;;;;;;5012664;28;20490;-69
2023/02/07 10:05:44;;;;;;;4.07;3.67;;;25.00;34.70;;;;;;5012270;28;20403;-69
2023/02/07 10:08:13;;;;;;;6.40;3.67;;;25.30;34.00;;;;;;5012538;28;20410;-70
2023/02/07 10:10:56;;;;;;;5.57;4.20;;;25.80;33.30;;;;;;5012165;28;20448;-70
2023/02/07 10:13:41;;;;;;;3.60;2.93;;;25.60;32.90;;;;;;5011006;28;20446;-70
2023/02/07 10:16:18;;;;;;;7.87;3.40;;;26.00;33.30;;;;;;5012040;28;20411;-70
2023/02/07 10:18:55;;;;;;;4.37;3.97;;;26.20;33.00;;;;;;5010986;28;20873;-71
2023/02/07 10:21:33;;;;;;;4.33;3.93;;;26.10;32.20;;;;;;5012096;28;20431;-70
2023/02/07 10:24:28;;;;;;;4.43;4.00;;;26.10;32.50;;;;;;5012234;28;20391;-71
2023/02/07 10:27:16;;;;;;;4.83;4.07;;;25.70;31.00;;;;;;5012077;28;20396;-71
2023/02/07 10:30:14;;;;;;;4.50;4.07;;;25.20;30.90;;;;;;5000209;28;20432;-71
2023/02/07 10:32:42;;;;;;;4.40;4.00;;;25.10;31.60;;;;;;4992077;28;20416;-71
2023/02/07 10:35:21;;;;;;;4.60;4.20;;;25.90;32.10;;;;;;4992047;28;20400;-71
2023/02/07 10:37:51;;;;;;;4.27;3.93;;;25.90;30.80;;;;;;4990970;28;20455;-71
2023/02/07 10:40:46;;;;;;;4.40;4.00;;;25.80;31.10;;;;;;4992368;28;20519;-71
2023/02/07 10:43:25;;;;;;;4.30;3.90;;;25.40;30.70;;;;;;4992278;28;20400;-71
2023/02/07 10:45:55;;;;;;;5.73;3.60;;;25.20;30.80;;;;;;4992142;28;20980;-71
2023/02/07 10:48:21;;;;;;;4.20;3.80;;;25.50;30.90;;;;;;4992263;28;20850;-71
2023/02/07 10:50:47;;;;;;;5.33;4.57;;;26.20;31.00;;;;;;4992248;28;20479;-72
2023/02/07 10:53:41;;;;;;;4.20;3.50;;;26.80;30.80;;;;;;4991368;28;20689;-71
2023/02/07 10:56:15;;;;;;;5.00;4.60;;;27.20;30.60;;;;;;4992076;28;20447;-70
2023/02/07 10:58:41;;;;;;;4.10;3.30;;;27.70;30.30;;;;;;5007591;28;20794;-71
2023/02/07 11:01:20;;;;;;;5.20;4.20;;;27.50;29.80;;;;;;4996455;28;20471;-71
2023/02/07 11:03:46;;;;;;;4.03;3.63;;;27.40;29.40;;;;;;4992332;28;20635;-71
2023/02/07 11:06:30;;;;;;;4.33;3.70;;;28.10;30.00;;;;;;4991778;28;20429;-71
2023/02/07 11:09:16;;;;;;;3.90;3.50;;;29.20;29.80;;;;;;4992146;28;20938;-71
2023/02/07 11:11:47;;;;;;;4.10;3.77;;;30.40;29.50;;;;;;4991259;28;20424;-71
2023/02/07 11:14:17;;;;;;;4.60;4.23;;;30.60;28.30;;;;;;4990832;28;20420;-72
2023/02/07 11:16:44;;;;;;;4.57;4.17;;;30.50;28.00;;;;;;4991996;28;20400;-71
2023/02/07 11:19:19;;;;;;;4.00;3.60;;;31.10;28.20;;;;;;4992065;28;20769;-72
2023/02/07 11:21:47;;;;;;;6.70;3.70;;;30.90;27.30;;;;;;4992015;28;20454;-71
2023/02/07 11:24:24;;;;;;;4.00;3.70;;;30.70;27.30;;;;;;4991912;28;20403;-72
2023/02/07 11:27:02;;;;;;;3.17;2.97;;;31.00;27.80;;;;;;4995807;28;20446;-72
2023/02/07 11:29:30;;;;;;;4.67;4.27;;;31.80;28.30;;;;;;5011045;28;20446;-72
2023/02/07 11:31:59;;;;;;;4.67;4.20;;;32.60;28.00;;;;;;5015357;28;20479;-72
2023/02/07 11:34:50;;;;;;;4.73;4.33;;;33.10;27.10;;;;;;5014894;28;20461;-72
2023/02/07 11:37:16;;;;;;;4.10;3.70;;;33.50;26.80;;;;;;5015117;28;20403;-72
2023/02/07 11:39:45;;;;;;;4.30;4.00;;;33.30;26.30;;;;;;5015046;28;20431;-72
2023/02/07 11:42:16;;;;;;;4.40;4.00;;;33.20;26.00;;;;;;5015113;28;20169;-72
2023/02/07 11:44:43;;;;;;;4.10;3.70;;;33.40;25.90;;;;;;5013418;28;20748;-72
2023/02/07 11:47:15;;;;;;;4.97;4.57;;;33.30;26.00;;;;;;4995616;28;20470;-72
2023/02/07 11:49:44;;;;;;;4.00;3.60;;;33.70;26.60;;;;;;4995424;28;20479;-72
2023/02/07 11:52:10;;;;;;;4.40;4.00;;;34.70;27.30;;;;;;4995460;28;20412;-73
2023/02/07 11:54:39;;;;;;;3.57;3.30;;;35.30;26.40;;;;;;4995135;28;20498;-72
2023/02/07 11:57:09;;;;;;;4.67;4.20;;;34.80;24.80;;;;;;4995306;28;20412;-72
2023/02/07 11:59:35;;;;;;;5.20;4.80;;;33.80;24.30;;;;;;5004599;28;20522;-72
2023/02/07 12:02:15;;;;;;;4.60;4.20;;;33.20;24.80;;;;;;5013599;28;20853;-72
2023/02/07 12:04:41;;;;;;;4.83;4.43;;;33.80;25.90;;;;;;5016863;28;20266;-72
2023/02/07 12:07:18;;;;;;;4.80;4.40;;;34.30;25.50;;;;;;5023269;28;20460;-72
2023/02/07 12:09:58;;;;;;;4.83;4.10;;;34.60;25.40;;;;;;5014548;28;20250;-72
2023/02/07 12:12:48;;;;;;;4.07;3.73;;;34.60;24.90;;;;;;5014448;28;20407;-72
2023/02/07 12:15:22;;;;;;;6.43;4.60;;;33.80;24.30;;;;;;5014424;28;20406;-72
2023/02/07 12:18:11;;;;;;;4.07;3.60;;;33.70;24.50;;;;;;5009435;28;20431;-72
2023/02/07 12:21:04;;;;;;;5.83;4.50;;;33.60;24.50;;;;;;4994245;28;20439;-72
2023/02/07 12:23:45;;;;;;;4.57;4.17;;;32.30;24.10;;;;;;4994695;28;20752;-72
2023/02/07 12:26:27;;;;;;;5.00;4.03;;;32.00;24.30;;;;;;4994452;28;20420;-71
2023/02/07 12:29:14;;;;;;;8.33;4.40;;;32.60;24.90;;;;;;4994522;28;20546;-71
2023/02/07 12:32:03;;;;;;;5.63;5.23;;;33.00;25.00;;;;;;4994665;28;20450;-71
2023/02/07 12:34:47;;;;;;;4.03;3.73;;;32.60;24.60;;;;;;4994143;28;20450;-70
2023/02/07 12:37:37;;;;;;;4.43;4.03;;;33.60;25.60;;;;;;4993343;28;20404;-71
2023/02/07 12:40:22;;;;;;;4.10;3.80;;;34.30;24.80;;;;;;4994420;28;20420;-71
2023/02/07 12:42:56;;;;;;;3.73;3.33;;;35.10;24.90;;;;;;4994497;28;20487;-72
2023/02/07 12:45:47;;;;;;;3.97;3.57;;;35.30;24.10;;;;;;4994054;28;20436;-71
2023/02/07 12:48:33;;;;;;;5.73;5.23;;;35.50;23.60;;;;;;4997422;28;20455;-71
2023/02/07 12:51:16;;;;;;;5.70;5.20;;;34.70;23.20;;;;;;5013758;28;20430;-72
2023/02/07 12:54:15;;;;;;;4.23;3.83;;;33.40;22.90;;;;;;5014223;28;20935;-71
2023/02/07 12:57:30;;;;;;;4.03;3.70;;;33.50;23.70;;;;;;5013650;28;20499;-71
2023/02/07 13:00:14;;;;;;;11.70;4.70;;;34.50;25.00;;;;;;5005193;28;20435;-71
2023/02/07 13:03:05;;;;;;;5.47;4.63;;;35.20;24.10;;;;;;5013783;28;20814;-72
2023/02/07 13:05:49;;;;;;;5.97;3.47;;;35.50;23.90;;;;;;5013348;28;20486;-72